createdAt,value
2016-07-25T00:00:28.453Z,23.74
2016-07-25T00:01:28.463Z,23.8
2016-07-25T00:02:28.482Z,23.77
2016-07-25T00:03:28.466Z,23.86
2016-07-25T00:04:28.444Z,23.78
2016-07-25T00:05:28.480Z,23.8
2016-07-25T00:06:28.489Z,23.77
2016-07-25T00:07:28.474Z,23.84
2016-07-25T00:08:28.487Z,23.77
2016-07-25T00:09:28.470Z,23.78
2016-07-25T00:10:28.474Z,23.84
2016-07-25T00:11:28.521Z,23.77
2016-07-25T00:12:28.499Z,23.74
2016-07-25T00:13:28.506Z,23.78
2016-07-25T00:14:28.497Z,23.74
2016-07-25T00:15:41.066Z,23.65
2016-07-25T00:16:28.493Z,23.59
2016-07-25T00:17:28.488Z,23.69
2016-07-25T00:18:28.453Z,23.73
2016-07-25T00:19:28.518Z,23.71
2016-07-25T00:20:28.533Z,23.69
2016-07-25T00:21:28.495Z,23.62
2016-07-25T00:22:28.515Z,23.59
2016-07-25T00:23:28.516Z,23.59
2016-07-25T00:24:28.521Z,23.59
2016-07-25T00:25:28.522Z,23.65
2016-07-25T00:26:28.495Z,23.59
2016-07-25T00:27:28.511Z,23.5
2016-07-25T00:28:28.502Z,23.34
2016-07-25T00:29:28.525Z,23.24
2016-07-25T00:30:28.523Z,23.13
2016-07-25T00:31:28.522Z,23.18
2016-07-25T00:32:39.466Z,23.12
2016-07-25T00:33:28.549Z,23.17
2016-07-25T00:34:28.562Z,23.13
2016-07-25T00:35:28.543Z,23.08
2016-07-25T00:36:28.567Z,23.09
2016-07-25T00:37:28.576Z,23.17
2016-07-25T00:38:28.516Z,23.1
2016-07-25T00:39:28.543Z,23.05
2016-07-25T00:40:28.535Z,22.98
2016-07-25T00:41:28.576Z,23.02
2016-07-25T00:42:28.646Z,23.06
2016-07-25T00:43:28.536Z,23.06
2016-07-25T00:44:28.544Z,22.96
2016-07-25T00:45:28.525Z,23
2016-07-25T00:46:28.543Z,23.02
2016-07-25T00:47:28.566Z,23.09
2016-07-25T00:48:28.556Z,23.15
2016-07-25T00:49:28.552Z,23.21
2016-07-25T00:50:28.572Z,23.17
2016-07-25T00:51:28.562Z,23.21
2016-07-25T00:52:28.558Z,23.18
2016-07-25T00:53:28.582Z,23.12
2016-07-25T00:54:28.537Z,23.24
2016-07-25T00:55:28.576Z,23.24
2016-07-25T00:56:28.585Z,23.15
2016-07-25T00:57:28.568Z,23.21
2016-07-25T00:58:28.578Z,23.2
2016-07-25T00:59:28.613Z,23.23
2016-07-25T01:00:28.601Z,23.15
2016-07-25T01:01:28.597Z,23.13
2016-07-25T01:02:28.590Z,23.09
2016-07-25T01:03:28.611Z,23.08
2016-07-25T01:04:28.587Z,23.06
2016-07-25T01:05:28.621Z,23.05
2016-07-25T01:06:28.614Z,22.98
2016-07-25T01:07:28.633Z,22.99
2016-07-25T01:08:28.639Z,23.03
2016-07-25T01:09:28.630Z,23.08
2016-07-25T01:10:28.613Z,23.02
2016-07-25T01:11:28.629Z,23.03
2016-07-25T01:12:28.622Z,22.87
2016-07-25T01:13:28.600Z,22.9
2016-07-25T01:14:28.638Z,22.81
2016-07-25T01:15:28.630Z,22.99
2016-07-25T01:16:28.607Z,23.02
2016-07-25T01:17:28.658Z,22.99
2016-07-25T01:18:28.606Z,23.1
2016-07-25T01:19:28.610Z,23.02
2016-07-25T01:20:28.619Z,23.02
2016-07-25T01:21:28.616Z,22.91
2016-07-25T01:22:28.644Z,22.96
2016-07-25T01:23:28.637Z,22.88
2016-07-25T01:24:28.609Z,22.96
2016-07-25T01:25:28.637Z,22.93
2016-07-25T01:26:28.665Z,22.91
2016-07-25T01:27:28.631Z,22.98
2016-07-25T01:28:28.668Z,22.96
2016-07-25T01:29:28.669Z,22.98
2016-07-25T01:30:28.647Z,23.1
2016-07-25T01:31:28.642Z,23.06
2016-07-25T01:32:28.663Z,23.13
2016-07-25T01:33:28.647Z,23.23
2016-07-25T01:34:28.664Z,23.05
2016-07-25T01:35:28.627Z,23.15
2016-07-25T01:36:28.651Z,23.15
2016-07-25T01:37:28.660Z,22.96
2016-07-25T01:38:28.663Z,22.98
2016-07-25T01:39:28.650Z,22.84
2016-07-25T01:40:28.634Z,22.83
2016-07-25T01:41:28.675Z,22.85
2016-07-25T01:42:28.677Z,22.83
2016-07-25T01:43:28.665Z,22.94
2016-07-25T01:44:28.676Z,22.87
2016-07-25T01:45:28.679Z,22.8
2016-07-25T01:46:28.696Z,22.85
2016-07-25T01:47:28.696Z,22.75
2016-07-25T01:48:28.686Z,22.84
2016-07-25T01:49:28.668Z,22.72
2016-07-25T01:50:28.720Z,22.72
2016-07-25T01:51:28.683Z,22.78
2016-07-25T01:52:28.704Z,22.83
2016-07-25T01:53:28.696Z,22.84
2016-07-25T01:54:28.715Z,22.9
2016-07-25T01:55:28.682Z,22.94
2016-07-25T01:56:28.690Z,22.91
2016-07-25T01:57:28.699Z,22.84
2016-07-25T01:58:28.676Z,22.87
2016-07-25T01:59:28.694Z,22.8
2016-07-25T02:00:28.715Z,22.9
2016-07-25T02:01:28.705Z,22.91
2016-07-25T02:02:28.738Z,22.88
2016-07-25T02:03:28.714Z,22.93
2016-07-25T02:04:28.735Z,22.91
2016-07-25T02:05:28.724Z,22.91
2016-07-25T02:06:28.738Z,23.06
2016-07-25T02:07:28.741Z,23
2016-07-25T02:08:28.712Z,23.1
2016-07-25T02:09:28.727Z,23.08
2016-07-25T02:10:28.762Z,22.98
2016-07-25T02:11:28.744Z,23.1
2016-07-25T02:12:28.776Z,23.06
2016-07-25T02:13:28.779Z,23.02
2016-07-25T02:25:46.344Z,22.78
2016-07-25T02:26:46.340Z,22.85
2016-07-25T02:27:46.326Z,22.84
2016-07-25T02:28:46.296Z,22.68
2016-07-25T02:29:46.270Z,22.66
2016-07-25T02:30:46.295Z,22.72
2016-07-25T02:31:47.272Z,22.65
2016-07-25T02:32:46.129Z,22.63
2016-07-25T02:33:46.184Z,22.6
2016-07-25T02:34:46.199Z,22.7
2016-07-25T02:35:46.280Z,22.69
2016-07-25T02:36:46.293Z,22.75
2016-07-25T02:37:46.871Z,22.7
2016-07-25T02:38:46.186Z,22.63
2016-07-25T02:39:46.222Z,22.54
2016-07-25T02:40:46.734Z,22.59
2016-07-25T02:41:46.324Z,22.7
2016-07-25T02:42:46.172Z,22.72
2016-07-25T02:43:46.216Z,22.68
2016-07-25T02:44:46.176Z,22.7
2016-07-25T02:45:46.195Z,22.65
2016-07-25T02:46:46.189Z,22.66
2016-07-25T02:47:46.170Z,22.54
2016-07-25T02:48:46.306Z,22.57
2016-07-25T02:49:46.198Z,22.53
2016-07-25T02:50:46.186Z,22.6
2016-07-25T02:51:46.270Z,22.5
2016-07-25T02:52:46.266Z,22.44
2016-07-25T02:53:46.414Z,22.35
2016-07-25T02:54:46.211Z,22.35
2016-07-25T02:55:46.352Z,22.35
2016-07-25T02:56:46.202Z,22.32
2016-07-25T02:57:46.223Z,22.18
2016-07-25T02:58:46.231Z,22.15
2016-07-25T02:59:46.209Z,22
2016-07-25T03:00:46.216Z,22.17
2016-07-25T03:01:46.282Z,22.07
2016-07-25T03:02:46.211Z,22.11
2016-07-25T03:03:46.232Z,22.07
2016-07-25T03:04:46.244Z,21.89
2016-07-25T03:05:46.231Z,21.85
2016-07-25T03:06:46.273Z,21.8
2016-07-25T03:07:46.234Z,21.85
2016-07-25T03:08:46.244Z,21.82
2016-07-25T03:09:46.761Z,21.91
2016-07-25T03:10:46.228Z,21.82
2016-07-25T03:11:46.246Z,21.87
2016-07-25T03:12:46.876Z,21.93
2016-07-25T03:13:46.243Z,21.83
2016-07-25T03:14:46.237Z,21.95
2016-07-25T03:15:46.286Z,21.96
2016-07-25T03:16:46.288Z,22
2016-07-25T03:17:46.249Z,22.07
2016-07-25T03:18:46.231Z,22.08
2016-07-25T03:19:46.211Z,21.98
2016-07-25T03:20:46.240Z,21.96
2016-07-25T03:21:46.215Z,22.06
2016-07-25T03:22:46.246Z,21.99
2016-07-25T03:23:46.220Z,21.99
2016-07-25T03:24:46.276Z,22.08
2016-07-25T03:25:46.306Z,22.18
2016-07-25T03:26:46.257Z,22.17
2016-07-25T03:27:46.240Z,22.2
2016-07-25T03:28:46.251Z,22.33
2016-07-25T03:29:46.269Z,22.35
2016-07-25T03:30:46.321Z,22.33
2016-07-25T03:31:46.266Z,22.25
2016-07-25T03:32:46.272Z,22.36
2016-07-25T03:33:46.277Z,22.36
2016-07-25T03:34:46.295Z,22.3
2016-07-25T03:35:46.256Z,22.28
2016-07-25T03:36:46.282Z,22.35
2016-07-25T03:37:46.275Z,22.28
2016-07-25T03:38:46.310Z,22.38
2016-07-25T03:39:46.301Z,22.29
2016-07-25T03:40:46.304Z,22.36
2016-07-25T03:41:46.321Z,22.28
2016-07-25T03:42:46.287Z,22.35
2016-07-25T03:43:46.306Z,22.35
2016-07-25T03:44:46.305Z,22.38
2016-07-25T03:45:46.308Z,22.35
2016-07-25T03:46:46.275Z,22.32
2016-07-25T03:47:46.313Z,22.28
2016-07-25T03:48:46.324Z,22.35
2016-07-25T03:49:46.287Z,22.44
2016-07-25T03:50:46.284Z,22.5
2016-07-25T03:51:46.313Z,22.54
2016-07-25T03:52:46.307Z,22.63
2016-07-25T03:53:46.301Z,22.62
2016-07-25T03:54:46.333Z,22.65
2016-07-25T03:55:46.333Z,22.7
2016-07-25T03:56:46.343Z,22.8
2016-07-25T03:57:46.314Z,22.8
2016-07-25T03:58:46.323Z,22.75
2016-07-25T03:59:46.327Z,22.8
2016-07-25T04:00:46.329Z,22.87
2016-07-25T04:01:46.561Z,22.78
2016-07-25T04:02:46.345Z,22.84
2016-07-25T04:03:46.318Z,22.84
2016-07-25T04:04:50.109Z,22.83
2016-07-25T04:05:46.768Z,22.78
2016-07-25T04:06:46.355Z,22.75
2016-07-25T04:07:46.329Z,22.7
2016-07-25T04:08:46.351Z,22.72
2016-07-25T04:09:46.351Z,22.72
2016-07-25T04:10:46.345Z,22.72
2016-07-25T04:11:46.349Z,22.68
2016-07-25T04:12:46.349Z,22.75
2016-07-25T04:13:46.347Z,22.7
2016-07-25T04:14:46.340Z,22.68
2016-07-25T04:15:46.347Z,22.65
2016-07-25T04:16:46.372Z,22.72
2016-07-25T04:17:46.341Z,22.7
2016-07-25T04:18:46.370Z,22.68
2016-07-25T04:19:46.371Z,22.83
2016-07-25T04:20:46.408Z,22.7
2016-07-25T04:21:46.485Z,22.73
2016-07-25T04:22:46.369Z,22.69
2016-07-25T04:23:46.359Z,22.59
2016-07-25T04:24:46.367Z,22.68
2016-07-25T04:25:46.388Z,22.63
2016-07-25T04:26:46.357Z,22.72
2016-07-25T04:27:46.369Z,22.75
2016-07-25T04:28:46.398Z,22.75
2016-07-25T04:29:47.384Z,22.78
2016-07-25T04:30:46.401Z,22.8
2016-07-25T04:31:46.370Z,22.83
2016-07-25T04:32:46.368Z,22.91
2016-07-25T04:33:46.406Z,22.88
2016-07-25T04:34:46.406Z,22.75
2016-07-25T04:35:46.424Z,22.93
2016-07-25T04:36:46.399Z,22.99
2016-07-25T04:37:46.505Z,22.91
2016-07-25T04:38:46.393Z,22.91
2016-07-25T04:39:46.471Z,22.9
2016-07-25T04:40:46.425Z,22.88
2016-07-25T04:41:46.408Z,22.88
2016-07-25T04:42:46.569Z,22.78
2016-07-25T04:43:46.442Z,22.62
2016-07-25T04:44:46.520Z,22.75
2016-07-25T04:45:47.638Z,22.7
2016-07-25T04:46:46.431Z,22.73
2016-07-25T04:47:46.438Z,22.66
2016-07-25T04:48:46.434Z,22.73
2016-07-25T04:49:46.423Z,22.68
2016-07-25T04:50:46.403Z,22.7
2016-07-25T04:51:46.438Z,22.55
2016-07-25T04:52:46.408Z,22.76
2016-07-25T04:53:46.422Z,22.78
2016-07-25T04:54:46.470Z,22.69
2016-07-25T04:55:46.461Z,22.83
2016-07-25T04:56:46.461Z,22.8
2016-07-25T04:57:46.480Z,22.72
2016-07-25T04:58:46.439Z,22.73
2016-07-25T04:59:46.438Z,22.69
2016-07-25T05:00:46.458Z,22.7
2016-07-25T05:01:46.480Z,22.78
2016-07-25T05:02:46.467Z,22.78
2016-07-25T05:03:46.449Z,22.88
2016-07-25T05:04:46.456Z,22.87
2016-07-25T05:05:46.444Z,23
2016-07-25T05:06:46.434Z,23.05
2016-07-25T05:07:46.485Z,22.93
2016-07-25T05:08:46.483Z,23.08
2016-07-25T05:09:46.502Z,23.1
2016-07-25T05:10:46.486Z,23.13
2016-07-25T05:11:46.489Z,23.18
2016-07-25T05:12:46.486Z,23.23
2016-07-25T05:13:46.531Z,23.21
2016-07-25T05:14:46.463Z,23.12
2016-07-25T05:15:46.506Z,23.03
2016-07-25T05:16:46.595Z,23.09
2016-07-25T05:17:46.492Z,23.06
2016-07-25T05:18:46.500Z,22.99
2016-07-25T05:19:46.494Z,22.9
2016-07-25T05:20:46.506Z,22.88
2016-07-25T05:21:46.508Z,22.88
2016-07-25T05:22:46.502Z,22.93
2016-07-25T05:23:46.489Z,22.72
2016-07-25T05:24:46.519Z,22.68
2016-07-25T05:25:46.504Z,22.7
2016-07-25T05:26:46.512Z,22.7
2016-07-25T05:27:46.492Z,22.78
2016-07-25T05:28:46.531Z,22.84
2016-07-25T05:29:46.508Z,22.81
2016-07-25T05:30:46.509Z,22.78
2016-07-25T05:31:46.537Z,22.83
2016-07-25T05:32:46.566Z,22.83
2016-07-25T05:33:46.530Z,22.84
2016-07-25T05:34:46.499Z,22.83
2016-07-25T05:35:46.514Z,22.85
2016-07-25T05:36:46.502Z,22.93
2016-07-25T05:37:46.536Z,22.88
2016-07-25T05:38:46.547Z,22.91
2016-07-25T05:39:46.556Z,23.08
2016-07-25T05:40:46.537Z,22.93
2016-07-25T05:41:46.543Z,22.81
2016-07-25T05:42:46.591Z,22.8
2016-07-25T05:43:46.589Z,22.7
2016-07-25T05:44:46.617Z,22.8
2016-07-25T05:45:46.549Z,22.84
2016-07-25T05:46:46.527Z,22.83
2016-07-25T05:47:46.572Z,23.03
2016-07-25T05:48:46.559Z,23.08
2016-07-25T05:49:46.577Z,22.98
2016-07-25T05:50:46.563Z,23.12
2016-07-25T05:51:47.115Z,23.17
2016-07-25T05:52:46.530Z,23.34
2016-07-25T05:53:46.561Z,23.36
2016-07-25T05:54:46.641Z,23.54
2016-07-25T05:55:46.822Z,23.63
2016-07-25T05:56:47.174Z,23.73
2016-07-25T05:57:46.576Z,23.78
2016-07-25T05:58:46.651Z,23.81
2016-07-25T05:59:46.599Z,23.96
2016-07-25T06:00:46.610Z,23.98
2016-07-25T06:01:46.661Z,23.87
2016-07-25T06:02:46.606Z,23.87
2016-07-25T06:03:46.588Z,23.77
2016-07-25T06:04:46.581Z,23.8
2016-07-25T06:05:46.605Z,23.88
2016-07-25T06:06:46.578Z,23.96
2016-07-25T06:07:46.594Z,24.11
2016-07-25T06:08:46.651Z,24.08
2016-07-25T06:09:46.636Z,24.24
2016-07-25T06:10:46.677Z,24.26
2016-07-25T06:11:46.626Z,24.29
2016-07-25T06:12:46.613Z,24.16
2016-07-25T06:13:46.601Z,24.08
2016-07-25T06:14:46.623Z,24.13
2016-07-25T06:15:46.665Z,24.08
2016-07-25T06:16:52.069Z,24.28
2016-07-25T06:17:46.665Z,24.21
2016-07-25T06:18:46.650Z,24.2
2016-07-25T06:19:46.605Z,24.08
2016-07-25T06:20:46.667Z,24.16
2016-07-25T06:21:46.635Z,24.21
2016-07-25T06:22:46.678Z,24.16
2016-07-25T06:23:46.654Z,24.18
2016-07-25T06:24:46.627Z,24.05
2016-07-25T06:25:46.626Z,23.92
2016-07-25T06:26:46.670Z,23.71
2016-07-25T06:27:46.680Z,23.69
2016-07-25T06:28:46.683Z,23.73
2016-07-25T06:29:46.652Z,23.71
2016-07-25T06:30:48.444Z,23.77
2016-07-25T06:31:46.732Z,23.69
2016-07-25T06:33:46.654Z,23.71
2016-07-25T06:34:46.821Z,23.86
2016-07-25T06:35:46.171Z,23.77
2016-07-25T06:36:46.671Z,23.93
2016-07-25T06:37:46.684Z,23.98
2016-07-25T06:38:46.691Z,24.13
2016-07-25T06:39:46.700Z,24.26
2016-07-25T06:40:46.703Z,24.4
2016-07-25T06:41:46.689Z,24.53
2016-07-25T06:42:46.693Z,24.65
2016-07-25T06:43:46.703Z,24.84
2016-07-25T06:44:46.709Z,25.03
2016-07-25T06:46:02.357Z,24.89
2016-07-25T06:46:46.652Z,24.8
2016-07-25T06:47:46.672Z,24.85
2016-07-25T06:48:47.247Z,24.84
2016-07-25T06:49:46.716Z,24.77
2016-07-25T06:50:46.694Z,24.84
2016-07-25T06:51:46.681Z,24.69
2016-07-25T06:52:46.667Z,24.84
2016-07-25T06:53:46.855Z,25.16
2016-07-25T06:54:46.711Z,25.16
2016-07-25T06:56:46.834Z,25.18
2016-07-25T06:57:46.824Z,25.16
2016-07-25T06:58:46.704Z,25.28
2016-07-25T06:59:46.762Z,25.4
2016-07-25T07:00:46.798Z,25.5
2016-07-25T07:01:46.729Z,25.47
2016-07-25T07:02:47.062Z,25.54
2016-07-25T07:03:46.700Z,25.6
2016-07-25T07:04:46.753Z,25.7
2016-07-25T07:05:46.788Z,25.75
2016-07-25T07:06:46.829Z,25.87
2016-07-25T07:07:46.761Z,25.85
2016-07-25T07:08:46.768Z,25.88
2016-07-25T07:09:46.272Z,25.91
2016-07-25T07:10:46.870Z,25.84
2016-07-25T07:11:46.788Z,25.8
2016-07-25T07:12:46.825Z,25.63
2016-07-25T07:13:47.553Z,25.44
2016-07-25T07:14:46.778Z,25.29
2016-07-25T07:15:48.761Z,25.25
2016-07-25T07:16:47.069Z,25.07
2016-07-25T07:17:46.739Z,24.99
2016-07-25T07:18:46.825Z,24.98
2016-07-25T07:19:46.781Z,24.93
2016-07-25T07:20:46.739Z,24.99
2016-07-25T07:21:46.757Z,24.88
2016-07-25T07:22:47.175Z,24.96
2016-07-25T07:23:46.833Z,25.04
2016-07-25T07:24:46.772Z,24.85
2016-07-25T07:25:48.326Z,24.8
2016-07-25T07:26:46.968Z,24.93
2016-07-25T07:27:47.757Z,25.04
2016-07-25T07:28:46.774Z,25.13
2016-07-25T07:29:49.208Z,24.89
2016-07-25T07:30:47.247Z,24.85
2016-07-25T07:31:46.464Z,24.76
2016-07-25T07:32:46.274Z,24.95
2016-07-25T07:33:47.063Z,25.07
2016-07-25T07:34:47.160Z,24.95
2016-07-25T07:35:46.869Z,24.92
2016-07-25T07:36:47.532Z,25.04
2016-07-25T07:37:46.850Z,25.06
2016-07-25T07:38:46.811Z,25.03
2016-07-25T07:39:46.846Z,25.33
2016-07-25T07:40:46.776Z,25.43
2016-07-25T07:41:46.821Z,25.43
2016-07-25T07:42:46.815Z,25.33
2016-07-25T07:43:47.053Z,25.35
2016-07-25T07:44:47.668Z,25.33
2016-07-25T07:45:57.467Z,25.29
2016-07-25T07:46:46.820Z,25.29
2016-07-25T07:47:50.731Z,25.29
2016-07-25T07:48:59.440Z,25.16
2016-07-25T07:49:47.679Z,25.08
2016-07-25T07:50:51.850Z,25.22
2016-07-25T07:51:46.819Z,25.41
2016-07-25T07:52:46.849Z,25.77
2016-07-25T07:53:47.066Z,26.15
2016-07-25T07:54:47.051Z,26.33
2016-07-25T07:55:46.863Z,27.08
2016-07-25T07:56:46.914Z,27.93
2016-07-25T07:57:46.977Z,28.45
2016-07-25T07:58:46.401Z,29.16
2016-07-25T07:59:46.859Z,29.66
2016-07-25T08:00:46.822Z,30.24
2016-07-25T08:01:46.854Z,30.43
2016-07-25T08:02:52.542Z,30.84
2016-07-25T08:03:46.868Z,31.09
2016-07-25T08:04:46.913Z,30.75
2016-07-25T08:05:46.905Z,30.39
2016-07-25T08:06:52.050Z,30.43
2016-07-25T08:07:54.948Z,30.1
2016-07-25T08:08:47.124Z,30.48
2016-07-25T08:09:46.871Z,30.23
2016-07-25T08:10:46.871Z,30.68
2016-07-25T08:11:47.045Z,30.99
2016-07-25T08:12:46.982Z,30.85
2016-07-25T08:13:47.038Z,30.59
2016-07-25T08:14:46.895Z,30.66
2016-07-25T08:15:47.555Z,30.46
2016-07-25T08:16:46.946Z,29.86
2016-07-25T08:17:50.037Z,28.78
2016-07-25T08:18:46.914Z,28.56
2016-07-25T08:19:47.999Z,28.1
2016-07-25T08:20:47.739Z,28.2
2016-07-25T08:21:46.904Z,28.54
2016-07-25T08:22:46.924Z,28.98
2016-07-25T08:23:47.478Z,29.22
2016-07-25T08:24:48.540Z,29.47
2016-07-25T08:25:46.910Z,29.57
2016-07-25T08:26:47.262Z,29.71
2016-07-25T08:27:49.150Z,29.84
2016-07-25T08:28:46.973Z,30.16
2016-07-25T08:29:47.115Z,30.61
2016-07-25T08:30:46.923Z,30.73
2016-07-25T08:31:51.949Z,30.87
2016-07-25T08:32:46.922Z,31.06
2016-07-25T08:33:47.512Z,31.03
2016-07-25T08:34:47.000Z,31.17
2016-07-25T08:35:47.148Z,31.36
2016-07-25T08:36:46.930Z,31.73
2016-07-25T08:37:46.910Z,31.69
2016-07-25T08:38:46.903Z,32.01
2016-07-25T08:39:46.967Z,31.8
2016-07-25T08:40:46.969Z,31.94
2016-07-25T08:41:46.947Z,32.26
2016-07-25T08:42:54.560Z,31.87
2016-07-25T08:43:47.064Z,31.93
2016-07-25T08:44:46.982Z,31.73
2016-07-25T08:45:47.018Z,32.14
2016-07-25T08:46:47.509Z,32.4
2016-07-25T08:47:47.120Z,32.43
2016-07-25T08:48:48.037Z,32.16
2016-07-25T08:49:48.545Z,31.71
2016-07-25T08:51:07.556Z,31.03
2016-07-25T08:51:46.985Z,31.29
2016-07-25T08:52:46.362Z,31.78
2016-07-25T08:53:46.947Z,32.29
2016-07-25T08:54:50.785Z,32.4
2016-07-25T08:55:46.547Z,33.01
2016-07-25T08:56:47.092Z,33.37
2016-07-25T08:57:46.980Z,32.52
2016-07-25T08:58:48.495Z,32.29
2016-07-25T08:59:47.038Z,32.03
2016-07-25T09:00:47.070Z,32.41
2016-07-25T09:01:51.774Z,32.65
2016-07-25T09:02:59.441Z,32.41
2016-07-25T09:03:47.092Z,32.15
2016-07-25T09:04:51.110Z,31.4
2016-07-25T09:05:46.977Z,31.31
2016-07-25T09:06:49.758Z,31.62
2016-07-25T09:07:47.008Z,32.18
2016-07-25T09:08:46.950Z,32.23
2016-07-25T09:09:47.086Z,31.93
2016-07-25T09:10:47.059Z,31.89
2016-07-25T09:11:47.211Z,32.19
2016-07-25T09:12:47.226Z,32.33
2016-07-25T09:13:47.760Z,32.87
2016-07-25T09:14:51.125Z,32.85
2016-07-25T09:15:46.998Z,32.77
2016-07-25T09:16:47.472Z,32.36
2016-07-25T09:17:48.009Z,32.65
2016-07-25T09:18:49.314Z,32.65
2016-07-25T09:19:47.679Z,32.87
2016-07-25T09:20:47.056Z,32.71
2016-07-25T09:21:47.001Z,32.75
2016-07-25T09:22:48.253Z,32.65
2016-07-25T09:23:51.506Z,31.59
2016-07-25T09:24:47.020Z,31.24
2016-07-25T09:25:47.333Z,31.22
2016-07-25T09:26:47.026Z,31.02
2016-07-25T09:27:48.067Z,31.03
2016-07-25T09:28:47.005Z,31.71
2016-07-25T09:29:48.991Z,31.61
2016-07-25T09:30:51.744Z,31.93
2016-07-25T09:31:48.640Z,32.26
2016-07-25T09:32:47.058Z,32.31
2016-07-25T09:33:47.084Z,32.36
2016-07-25T09:34:47.104Z,32.43
2016-07-25T09:35:47.053Z,32.4
2016-07-25T09:36:47.929Z,32.85
2016-07-25T09:37:47.020Z,32.33
2016-07-25T09:38:47.715Z,32.87
2016-07-25T09:39:47.661Z,33.57
2016-07-25T09:40:47.405Z,33.79
2016-07-25T09:41:47.088Z,33.84
2016-07-25T09:42:47.235Z,33.76
2016-07-25T09:43:47.072Z,33.46
2016-07-25T09:44:47.056Z,33.57
2016-07-25T09:45:51.241Z,33.68
2016-07-25T09:46:47.274Z,33.27
2016-07-25T09:47:47.181Z,32.93
2016-07-25T09:48:47.269Z,33
2016-07-25T09:49:49.830Z,33.11
2016-07-25T09:50:47.926Z,32.78
2016-07-25T09:51:57.147Z,32.77
2016-07-25T09:52:47.104Z,32.4
2016-07-25T09:53:47.136Z,32.64
2016-07-25T09:54:47.088Z,32.96
2016-07-25T09:55:47.488Z,33.07
2016-07-25T09:56:47.190Z,33.39
2016-07-25T09:57:47.132Z,33.12
2016-07-25T09:58:50.407Z,33.01
2016-07-25T09:59:47.635Z,32.41
2016-07-25T10:00:48.914Z,32.6
2016-07-25T10:01:47.339Z,33.07
2016-07-25T10:02:47.191Z,33.09
2016-07-25T10:03:47.171Z,33.15
2016-07-25T10:04:47.094Z,32.82
2016-07-25T10:05:46.518Z,33.17
2016-07-25T10:06:54.986Z,32.6
2016-07-25T10:07:47.122Z,32.46
2016-07-25T10:08:47.273Z,32.68
2016-07-25T10:09:47.138Z,32.58
2016-07-25T10:11:48.230Z,32.93
2016-07-25T10:13:00.158Z,32.21
2016-07-25T10:13:47.208Z,31.84
2016-07-25T10:14:49.129Z,32.16
2016-07-25T10:24:47.660Z,33.12
2016-07-25T10:25:04.953Z,33.28
2016-07-25T10:26:04.914Z,33.77
2016-07-25T10:27:04.804Z,33.24
2016-07-25T10:28:15.822Z,32.9
2016-07-25T10:29:05.286Z,32.97
2016-07-25T10:30:04.798Z,32.82
2016-07-25T10:31:04.888Z,33.14
2016-07-25T10:32:04.874Z,33.87
2016-07-25T10:33:04.801Z,34.21
2016-07-25T10:34:07.411Z,34.75
2016-07-25T10:35:04.808Z,34.36
2016-07-25T10:36:05.767Z,34.18
2016-07-25T10:37:05.006Z,33.69
2016-07-25T10:38:04.862Z,33.2
2016-07-25T10:39:05.413Z,33.61
2016-07-25T10:40:04.829Z,34.14
2016-07-25T10:41:05.257Z,34.33
2016-07-25T10:42:17.483Z,34.78
2016-07-25T10:43:04.849Z,34.36
2016-07-25T10:44:07.714Z,34.3
2016-07-25T10:45:04.876Z,34.13
2016-07-25T10:47:28.872Z,33.67
2016-07-25T10:48:04.991Z,33.23
2016-07-25T10:49:04.842Z,31.69
2016-07-25T10:50:04.922Z,31.22
2016-07-25T10:51:04.860Z,30.8
2016-07-25T10:52:14.729Z,30.53
2016-07-25T10:53:04.922Z,30.77
2016-07-25T10:54:05.291Z,30.9
2016-07-25T10:55:05.031Z,30.72
2016-07-25T10:56:04.917Z,30.9
2016-07-25T10:57:18.565Z,31.37
2016-07-25T10:58:06.437Z,31.96
2016-07-25T10:59:06.089Z,32.07
2016-07-25T11:00:06.683Z,31.4
2016-07-25T11:01:05.060Z,30.54
2016-07-25T11:02:04.858Z,29.75
2016-07-25T11:03:05.032Z,29.35
2016-07-25T11:04:05.927Z,28.97
2016-07-25T11:05:08.043Z,29.88
2016-07-25T11:06:04.958Z,30.25
2016-07-25T11:07:05.047Z,30.78
2016-07-25T11:08:04.974Z,30.8
2016-07-25T11:09:15.264Z,30.96
2016-07-25T11:10:14.232Z,30.9
2016-07-25T11:11:26.895Z,30.69
2016-07-25T11:12:06.556Z,30.57
2016-07-25T11:13:05.040Z,30.25
2016-07-25T11:14:25.357Z,29.78
2016-07-25T11:15:06.576Z,29.95
2016-07-25T11:16:08.782Z,30.87
2016-07-25T11:17:21.692Z,31.4
2016-07-25T11:18:06.388Z,31.65
2016-07-25T11:19:10.705Z,32.4
2016-07-25T11:20:39.923Z,32.48
2016-07-25T11:21:10.005Z,32.34
2016-07-25T11:22:04.917Z,32.27
2016-07-25T11:23:05.647Z,32.4
2016-07-25T11:24:05.915Z,32.34
2016-07-25T11:25:13.610Z,32.29
2016-07-25T11:38:05.890Z,35.37
2016-07-25T11:38:22.625Z,35.44
2016-07-25T11:39:23.192Z,35.44
2016-07-25T11:52:23.083Z,35.12
2016-07-25T11:52:40.362Z,33.71
2016-07-25T11:53:52.598Z,33.81
2016-07-25T11:54:40.582Z,34.24
2016-07-25T11:55:41.972Z,34.27
2016-07-25T11:56:40.391Z,33.99
2016-07-25T11:57:51.183Z,34.3
2016-07-25T11:58:44.885Z,33.86
2016-07-25T11:59:46.842Z,33.98
2016-07-25T12:00:40.253Z,34.23
2016-07-25T12:01:48.417Z,32.86
2016-07-25T12:02:41.565Z,32.3
2016-07-25T12:03:40.214Z,31.61
2016-07-25T12:04:40.251Z,31.61
2016-07-25T12:06:07.443Z,32.82
2016-07-25T12:06:41.255Z,33.12
2016-07-25T12:07:58.578Z,33.05
2016-07-25T12:08:40.434Z,32.68
2016-07-25T12:09:40.275Z,32.01
2016-07-25T12:10:41.700Z,31.46
2016-07-25T12:11:45.428Z,30.81
2016-07-25T12:12:47.565Z,30.18
2016-07-25T12:13:50.535Z,29.68
2016-07-25T12:14:40.336Z,29.97
2016-07-25T12:15:43.311Z,30.63
2016-07-25T12:16:40.330Z,31.33
2016-07-25T12:17:49.722Z,31.69
2016-07-25T12:19:04.355Z,30.57
2016-07-25T12:19:42.317Z,29.94
2016-07-25T12:20:40.258Z,29.56
2016-07-25T12:21:40.380Z,29.26
2016-07-25T12:22:41.284Z,28.85
2016-07-25T12:23:43.829Z,28.7
2016-07-25T12:24:40.343Z,28.27
2016-07-25T12:25:41.140Z,28.02
2016-07-25T12:26:42.087Z,27.87
2016-07-25T12:27:40.431Z,27.74
2016-07-25T12:28:40.353Z,27.68
2016-07-25T12:29:40.470Z,27.78
2016-07-25T12:30:40.331Z,27.86
2016-07-25T12:31:40.462Z,27.65
2016-07-25T12:32:42.629Z,27.67
2016-07-25T12:33:40.497Z,27.7
2016-07-25T12:34:49.123Z,27.44
2016-07-25T12:35:40.640Z,27.29
2016-07-25T12:36:40.539Z,27.07
2016-07-25T12:37:42.087Z,27.18
2016-07-25T12:38:41.008Z,27.27
2016-07-25T12:39:40.310Z,27.4
2016-07-25T12:40:41.992Z,27.49
2016-07-25T12:41:43.133Z,27.4
2016-07-25T12:42:41.534Z,27.29
2016-07-25T12:43:40.523Z,27.55
2016-07-25T12:44:40.401Z,27.7
2016-07-25T12:45:40.528Z,27.51
2016-07-25T12:47:40.320Z,27.51
2016-07-25T12:48:40.297Z,27.59
2016-07-25T12:49:40.397Z,27.63
2016-07-25T12:50:40.301Z,27.58
2016-07-25T12:51:40.335Z,27.51
2016-07-25T12:52:41.283Z,27.44
2016-07-25T12:53:46.457Z,27.47
2016-07-25T12:54:41.055Z,27.47
2016-07-25T12:55:41.463Z,27.37
2016-07-25T12:56:40.323Z,27.39
2016-07-25T12:57:40.365Z,27.42
2016-07-25T12:58:52.629Z,27.44
2016-07-25T12:59:40.490Z,27.51
2016-07-25T13:00:40.404Z,27.35
2016-07-25T13:01:40.355Z,27.21
2016-07-25T13:02:40.414Z,27.17
2016-07-25T13:03:59.369Z,27
2016-07-25T13:04:40.455Z,26.88
2016-07-25T13:05:40.656Z,26.95
2016-07-25T13:06:40.444Z,27.02
2016-07-25T13:07:40.439Z,27.02
2016-07-25T13:08:44.644Z,27.15
2016-07-25T13:09:43.107Z,27.07
2016-07-25T13:10:40.470Z,27.02
2016-07-25T13:11:40.378Z,26.92
2016-07-25T13:12:40.362Z,27.11
2016-07-25T13:13:40.494Z,27.26
2016-07-25T13:14:40.526Z,27.15
2016-07-25T13:15:40.351Z,27.05
2016-07-25T13:16:40.757Z,27.11
2016-07-25T13:17:40.550Z,27.1
2016-07-25T13:18:40.403Z,27.1
2016-07-25T13:19:40.477Z,27.15
2016-07-25T13:20:40.426Z,27.1
2016-07-25T13:21:40.964Z,27.03
2016-07-25T13:22:40.558Z,27.02
2016-07-25T13:23:41.207Z,26.81
2016-07-25T13:24:44.458Z,26.97
2016-07-25T13:25:41.457Z,27.07
2016-07-25T13:26:40.455Z,27.25
2016-07-25T13:28:35.085Z,27.1
2016-07-25T13:28:56.189Z,27.2
2016-07-25T13:29:53.107Z,27.1
2016-07-25T13:31:04.690Z,27.11
2016-07-25T13:31:57.879Z,27.14
2016-07-25T13:32:53.091Z,27.08
2016-07-25T13:33:52.960Z,27.3
2016-07-25T13:34:52.922Z,27.22
2016-07-25T13:35:53.091Z,27.12
2016-07-25T13:36:54.180Z,27.15
2016-07-25T13:37:53.588Z,27.07
2016-07-25T13:39:00.256Z,26.97
2016-07-25T13:40:12.611Z,27.07
2016-07-25T13:45:32.980Z,27.05
2016-07-25T13:45:50.343Z,27.14
2016-07-25T13:46:50.422Z,27.26
2016-07-25T13:47:50.267Z,27.12